createdAt,value
2023-05-09T00:00:57.742Z,16.30
2023-05-09T00:06:01.196Z,16.30
2023-05-09T00:11:04.351Z,15.70
2023-05-09T00:16:08.297Z,16.20
2023-05-09T00:21:11.640Z,16.40
2023-05-09T00:26:14.482Z,16.40
2023-05-09T00:31:17.210Z,16.10
2023-05-09T00:36:20.097Z,16.40
2023-05-09T00:41:22.900Z,16.20
2023-05-09T00:46:25.770Z,16.60
2023-05-09T00:51:28.776Z,15.60
2023-05-09T00:56:31.948Z,16.50
2023-05-09T01:01:34.875Z,16.40
2023-05-09T01:06:58.077Z,16.40
2023-05-09T01:12:09.986Z,16.00
2023-05-09T01:17:39.557Z,16.70
2023-05-09T01:22:49.994Z,16.60
2023-05-09T01:28:12.420Z,16.60
2023-05-09T01:33:18.292Z,16.20
2023-05-09T01:38:22.303Z,16.50
2023-05-09T01:43:27.546Z,16.00
2023-05-09T01:48:30.544Z,16.20
2023-05-09T01:53:33.511Z,16.30
2023-05-09T01:58:36.262Z,15.50
2023-05-09T02:03:39.108Z,15.90
2023-05-09T02:08:41.835Z,16.00
2023-05-09T02:13:44.894Z,14.90
2023-05-09T02:18:47.948Z,16.20
2023-05-09T02:23:50.694Z,15.60
2023-05-09T02:28:53.645Z,16.00
2023-05-09T02:33:56.844Z,15.40
2023-05-09T02:39:01.216Z,16.10
2023-05-09T02:44:05.366Z,16.10
2023-05-09T02:49:10.121Z,16.40
2023-05-09T02:54:13.374Z,14.90
2023-05-09T02:59:18.444Z,15.60
2023-05-09T03:04:23.115Z,15.60
2023-05-09T03:09:26.307Z,15.60
2023-05-09T03:14:29.110Z,15.00
2023-05-09T03:19:32.698Z,14.50
2023-05-09T03:24:35.508Z,15.00
2023-05-09T03:29:38.572Z,14.70
2023-05-09T03:34:41.754Z,15.40
2023-05-09T03:39:44.526Z,15.90
2023-05-09T03:44:47.707Z,15.90
2023-05-09T03:49:50.826Z,14.30
2023-05-09T03:54:53.842Z,15.90
2023-05-09T03:59:56.653Z,15.80
2023-05-09T04:05:01.708Z,15.30
2023-05-09T04:10:06.447Z,15.60
2023-05-09T04:15:11.184Z,15.20
2023-05-09T04:20:14.084Z,16.00
2023-05-09T04:34:05.422Z,19.10
2023-05-09T04:39:12.960Z,18.00
2023-05-09T05:21:59.420Z,14.30
2023-05-09T05:27:03.281Z,13.60
2023-05-09T05:32:07.693Z,11.90
2023-05-09T05:37:10.477Z,11.60
2023-05-09T05:43:53.528Z,10.40
2023-05-09T05:48:59.078Z,10.00
2023-05-09T06:01:24.305Z,9.50
2023-05-09T06:06:27.831Z,9.30
2023-05-09T06:11:30.847Z,8.20
2023-05-09T06:16:39.992Z,7.40
2023-05-09T06:21:42.812Z,7.00
2023-05-09T06:26:46.087Z,6.20
2023-05-09T06:31:49.222Z,5.00
2023-05-09T06:36:52.533Z,5.00
2023-05-09T06:41:55.322Z,3.90
2023-05-09T06:46:58.406Z,4.10
2023-05-09T06:52:02.753Z,3.50
2023-05-09T06:57:05.683Z,3.00
2023-05-09T07:02:08.870Z,2.10
2023-05-09T07:07:11.673Z,2.20
2023-05-09T07:12:14.385Z,2.30
2023-05-09T07:17:23.704Z,2.00
2023-05-09T07:22:28.785Z,2.00
2023-05-09T07:27:33.554Z,1.60
2023-05-09T07:32:36.479Z,1.60
2023-05-09T07:37:39.244Z,1.60
2023-05-09T07:42:49.495Z,1.50
2023-05-09T07:47:52.346Z,1.50
2023-05-09T07:52:55.785Z,1.60
2023-05-09T07:57:58.520Z,1.60
2023-05-09T08:03:01.554Z,1.50
2023-05-09T08:08:04.886Z,1.80
2023-05-09T08:13:07.717Z,1.80
2023-05-09T08:18:10.789Z,1.60
2023-05-09T08:23:13.870Z,1.60
2023-05-09T08:28:16.810Z,1.50
2023-05-09T08:33:19.537Z,1.60
2023-05-09T08:38:22.531Z,1.40
2023-05-09T08:43:46.076Z,1.50
2023-05-09T08:48:49.140Z,1.50
2023-05-09T08:53:52.037Z,1.60
2023-05-09T08:58:54.784Z,1.60
2023-05-09T09:03:57.641Z,1.40
2023-05-09T09:09:00.599Z,1.20
2023-05-09T09:14:18.592Z,1.40
2023-05-09T09:19:21.394Z,1.40
2023-05-09T09:24:24.664Z,1.60
2023-05-09T09:29:28.727Z,1.50
2023-05-09T09:34:31.829Z,1.40
2023-05-09T09:39:34.607Z,1.70
2023-05-09T09:44:37.355Z,1.40
2023-05-09T09:49:46.101Z,1.90
2023-05-09T09:54:48.996Z,1.60
2023-05-09T09:59:59.673Z,1.50
2023-05-09T10:05:09.307Z,1.50
2023-05-09T10:10:12.116Z,1.40
2023-05-09T10:15:18.728Z,1.10
2023-05-09T10:20:22.276Z,1.50
2023-05-09T10:25:40.666Z,1.60
2023-05-09T10:30:55.521Z,1.30
2023-05-09T12:19:51.112Z,1.10
2023-05-09T12:24:54.877Z,1.00
2023-05-09T12:35:00.573Z,1.20
2023-05-09T12:40:13.044Z,1.10
2023-05-09T12:45:16.284Z,0.90
2023-05-09T12:50:19.525Z,0.80
2023-05-09T12:55:22.245Z,1.00
2023-05-09T13:00:25.498Z,1.10
2023-05-09T13:05:28.305Z,0.90
2023-05-09T13:10:31.052Z,0.90
2023-05-09T13:15:34.006Z,1.10
2023-05-09T13:20:36.842Z,1.10
2023-05-09T13:30:42.338Z,1.00
2023-05-09T13:35:47.075Z,1.10
2023-05-09T13:40:51.639Z,1.10
2023-05-09T13:45:54.490Z,1.00
2023-05-09T13:50:59.592Z,1.20
2023-05-09T13:56:02.450Z,1.00
2023-05-09T14:01:05.455Z,1.20
2023-05-09T14:06:10.515Z,1.00
2023-05-09T14:11:13.730Z,1.30
2023-05-09T14:16:16.867Z,1.10
2023-05-09T14:21:19.684Z,1.00
2023-05-09T14:26:22.497Z,1.00
2023-05-09T14:31:25.413Z,0.90
2023-05-09T14:36:28.873Z,1.30
2023-05-09T14:41:31.819Z,1.70
2023-05-09T14:46:34.745Z,1.30
2023-05-09T14:51:37.744Z,1.30
2023-05-09T14:56:40.573Z,1.40
2023-05-09T15:01:43.624Z,1.10
2023-05-09T15:06:46.426Z,1.20
2023-05-09T15:11:49.498Z,1.20
2023-05-09T15:16:53.239Z,1.40
2023-05-09T15:21:56.038Z,1.60
2023-05-09T15:26:58.859Z,1.60
2023-05-09T15:32:01.567Z,1.60
2023-05-09T15:37:04.665Z,1.60
2023-05-09T15:42:08.920Z,1.50
2023-05-09T15:47:11.798Z,1.50
2023-05-09T15:52:14.909Z,1.50
2023-05-09T15:57:18.215Z,1.70
2023-05-09T16:02:22.277Z,1.50
2023-05-09T16:07:26.179Z,1.60
2023-05-09T16:12:29.337Z,1.50
2023-05-09T16:17:32.227Z,1.60
2023-05-09T16:22:34.998Z,1.50
2023-05-09T16:27:37.833Z,1.50
2023-05-09T16:32:40.696Z,1.50
2023-05-09T16:37:44.177Z,1.40
2023-05-09T16:42:47.204Z,1.40
2023-05-09T16:47:51.140Z,1.50
2023-05-09T16:52:54.273Z,1.40
2023-05-09T16:57:57.019Z,1.70
2023-05-09T17:02:59.861Z,1.50
2023-05-09T17:08:02.674Z,1.70
2023-05-09T17:13:08.583Z,1.70
2023-05-09T17:18:17.062Z,1.80
2023-05-09T17:23:22.238Z,1.70
2023-05-09T17:28:25.347Z,1.60
2023-05-09T17:33:28.219Z,1.80
2023-05-09T17:38:31.033Z,2.10
2023-05-09T17:43:34.309Z,2.10
2023-05-09T17:48:37.148Z,2.10
2023-05-09T17:53:39.987Z,2.40
2023-05-09T17:58:42.872Z,2.30
2023-05-09T18:03:46.315Z,2.00
2023-05-09T18:08:49.097Z,2.10
2023-05-09T18:13:51.897Z,2.60
2023-05-09T18:18:54.719Z,2.90
2023-05-09T18:23:57.729Z,2.80
2023-05-09T18:29:01.419Z,3.10
2023-05-09T18:34:05.655Z,3.00
2023-05-09T18:39:09.007Z,3.20
2023-05-09T18:44:11.783Z,3.40
2023-05-09T18:49:15.560Z,6.00
2023-05-09T18:54:18.376Z,10.40
2023-05-09T18:59:21.962Z,13.90
2023-05-09T19:04:25.334Z,15.40
2023-05-09T19:09:29.174Z,11.90
2023-05-09T19:14:32.198Z,14.50
2023-05-09T19:19:35.033Z,14.30
2023-05-09T19:24:37.902Z,9.80
2023-05-09T19:29:40.760Z,7.10
2023-05-09T19:34:43.676Z,5.90
2023-05-09T19:39:46.737Z,5.80
2023-05-09T19:44:52.308Z,5.90
2023-05-09T19:49:55.026Z,6.00
2023-05-09T19:54:57.843Z,6.00
2023-05-09T20:00:00.686Z,5.90
2023-05-09T20:05:03.799Z,6.20
2023-05-09T20:10:07.089Z,6.20
2023-05-09T20:15:10.309Z,6.10
2023-05-09T20:20:13.686Z,6.90
2023-05-09T20:25:16.827Z,7.30
2023-05-09T20:30:19.737Z,6.80
2023-05-09T20:35:23.077Z,7.70
2023-05-09T20:40:25.869Z,7.40
2023-05-09T20:45:28.740Z,7.00
2023-05-09T20:50:31.648Z,7.30
2023-05-09T20:55:34.764Z,7.30
2023-05-09T21:00:37.590Z,7.50
2023-05-09T21:05:40.846Z,7.70
2023-05-09T21:10:43.703Z,8.40
2023-05-09T21:15:50.346Z,7.80
2023-05-09T21:20:53.285Z,7.90
2023-05-09T21:25:56.106Z,8.10
2023-05-09T21:31:01.467Z,8.00
2023-05-09T21:36:04.625Z,8.50
2023-05-09T21:41:07.400Z,8.40
2023-05-09T21:46:10.418Z,7.80
2023-05-09T21:51:13.228Z,8.10
2023-05-09T21:56:15.923Z,8.30
2023-05-09T22:01:19.135Z,8.00
2023-05-09T22:06:22.075Z,8.70
2023-05-09T22:11:24.805Z,8.30
2023-05-09T22:16:27.706Z,7.80
2023-05-09T22:21:31.429Z,7.70
2023-05-09T22:26:34.241Z,7.60
2023-05-09T22:31:36.997Z,7.70
2023-05-09T22:36:39.880Z,8.30
2023-05-09T22:41:42.683Z,8.10
2023-05-09T22:46:45.385Z,7.90
2023-05-09T22:51:48.233Z,8.40
2023-05-09T22:56:51.143Z,7.90
2023-05-09T23:01:53.972Z,8.30
2023-05-09T23:06:56.753Z,8.00
2023-05-09T23:11:59.597Z,7.80
2023-05-09T23:17:02.461Z,8.10
2023-05-09T23:22:05.436Z,8.00
2023-05-09T23:27:08.343Z,8.00
2023-05-09T23:32:11.066Z,7.70
2023-05-09T23:37:13.844Z,7.90
2023-05-09T23:42:16.656Z,8.30
2023-05-09T23:47:19.361Z,7.30
2023-05-09T23:52:22.051Z,7.30
2023-05-09T23:57:24.897Z,7.30
